Time;durP1;ratioP1;P1;durP2;ratioP2;P2;SDS_P1;SDS_P2;PMS_P1;PMS_P2;Temp;Humidity;BMP_temperature;BMP_pressure;BME280_temperature;BME280_humidity;BME280_pressure;Samples;Min_cycle;Max_cycle;Signal;HPM_P1;HPM_P2
2023/12/07 00:01:07;;;;;;;3.42;2.00;;;7.90;99.90;;;;;;5146965;27;20034;-47
2023/12/07 00:03:33;;;;;;;2.45;1.83;;;7.90;99.90;;;;;;5128784;28;20030;-47
2023/12/07 00:05:59;;;;;;;3.72;2.08;;;7.80;99.90;;;;;;5146982;27;20038;-47
2023/12/07 00:08:24;;;;;;;4.50;2.10;;;7.90;99.90;;;;;;5146361;27;20108;-48
2023/12/07 00:10:50;;;;;;;2.22;1.88;;;7.90;99.90;;;;;;5147220;27;20111;-46
2023/12/07 00:13:16;;;;;;;2.97;2.00;;;7.90;99.90;;;;;;5146573;27;20042;-47
2023/12/07 00:15:42;;;;;;;3.97;2.40;;;7.80;99.90;;;;;;5146857;27;20034;-47
2023/12/07 00:18:08;;;;;;;3.38;2.10;;;7.80;99.90;;;;;;5145691;28;20330;-47
2023/12/07 00:20:33;;;;;;;2.35;1.95;;;7.90;99.90;;;;;;5146834;28;20023;-46
2023/12/07 00:23:00;;;;;;;3.30;2.10;;;7.90;99.90;;;;;;5146883;28;20072;-47
2023/12/07 00:25:25;;;;;;;2.45;1.85;;;7.90;99.90;;;;;;5146238;28;20023;-46
2023/12/07 00:27:52;;;;;;;2.10;1.60;;;7.90;99.90;;;;;;5145938;28;20031;-46
2023/12/07 00:30:17;;;;;;;6.30;2.15;;;7.90;99.90;;;;;;5147195;28;20026;-46
2023/12/07 00:32:43;;;;;;;3.22;2.20;;;7.90;99.90;;;;;;5146495;28;20027;-47
2023/12/07 00:35:12;;;;;;;2.78;1.75;;;7.90;99.90;;;;;;5146428;28;20023;-49
2023/12/07 00:37:37;;;;;;;4.47;2.33;;;7.90;99.90;;;;;;5146497;28;20086;-47
2023/12/07 00:40:04;;;;;;;4.78;2.13;;;8.00;99.90;;;;;;5145674;28;20019;-50
2023/12/07 00:42:30;;;;;;;2.50;1.48;;;8.00;99.90;;;;;;5147469;28;20027;-50
2023/12/07 00:44:55;;;;;;;4.40;2.40;;;8.00;99.90;;;;;;5146687;27;20051;-50
2023/12/07 00:47:21;;;;;;;3.08;2.10;;;8.10;99.90;;;;;;5146798;28;20134;-50
2023/12/07 00:49:47;;;;;;;2.90;1.67;;;8.00;99.90;;;;;;5145388;28;20368;-47
2023/12/07 00:52:13;;;;;;;2.33;1.75;;;8.10;99.90;;;;;;5146519;28;20063;-50
2023/12/07 00:54:39;;;;;;;3.67;1.75;;;8.00;99.90;;;;;;5145528;28;20019;-49
2023/12/07 00:57:08;;;;;;;3.75;2.10;;;8.00;99.90;;;;;;5145670;27;20030;-50
2023/12/07 00:59:33;;;;;;;3.25;1.80;;;7.90;99.90;;;;;;5149378;27;20031;-50
2023/12/07 01:02:02;;;;;;;2.85;1.88;;;7.90;99.90;;;;;;5150641;27;20172;-51
2023/12/07 01:04:29;;;;;;;2.63;1.90;;;7.90;99.90;;;;;;5149962;27;20035;-51
2023/12/07 01:06:54;;;;;;;3.00;1.80;;;8.00;99.90;;;;;;5150041;27;20119;-51
2023/12/07 01:09:21;;;;;;;1.98;1.55;;;8.00;99.90;;;;;;5150115;27;20027;-53
2023/12/07 01:11:47;;;;;;;2.45;1.95;;;8.00;99.90;;;;;;5150051;27;20031;-51
2023/12/07 01:14:13;;;;;;;2.88;1.90;;;8.00;99.90;;;;;;5150451;27;20272;-50
2023/12/07 01:16:39;;;;;;;2.97;1.98;;;8.00;99.90;;;;;;5150318;27;20019;-48
2023/12/07 01:19:04;;;;;;;2.75;1.80;;;8.10;99.90;;;;;;5150010;27;20034;-47
2023/12/07 01:21:30;;;;;;;1.98;1.58;;;8.10;99.90;;;;;;5149601;27;20023;-48
2023/12/07 01:23:56;;;;;;;2.03;1.38;;;8.30;99.90;;;;;;5149999;27;20102;-50
2023/12/07 01:26:22;;;;;;;2.65;1.70;;;8.40;99.90;;;;;;5131918;27;20106;-47
2023/12/07 01:28:48;;;;;;;1.33;1.17;;;8.50;99.90;;;;;;5149654;27;20019;-47
2023/12/07 01:31:13;;;;;;;2.92;1.65;;;8.60;99.90;;;;;;5149997;27;20045;-48
2023/12/07 01:33:39;;;;;;;3.55;1.80;;;8.60;99.90;;;;;;5150129;27;20034;-48
2023/12/07 01:36:05;;;;;;;2.05;1.50;;;8.50;99.90;;;;;;5149570;27;20068;-47
2023/12/07 01:38:30;;;;;;;2.13;1.50;;;8.60;99.90;;;;;;5149796;27;20034;-48
2023/12/07 01:40:56;;;;;;;1.88;1.25;;;8.60;99.90;;;;;;5149661;27;20050;-46
2023/12/07 01:43:22;;;;;;;2.17;1.42;;;8.70;99.90;;;;;;5149635;27;20121;-48
2023/12/07 01:45:48;;;;;;;1.80;1.30;;;8.80;99.90;;;;;;5149719;27;20275;-48
2023/12/07 01:48:14;;;;;;;2.45;1.50;;;8.80;99.90;;;;;;5148795;27;20027;-46
2023/12/07 01:50:40;;;;;;;1.95;1.42;;;8.70;99.90;;;;;;5149146;27;20046;-51
2023/12/07 01:53:05;;;;;;;3.30;1.63;;;8.70;99.90;;;;;;5148497;27;20042;-50
2023/12/07 01:55:31;;;;;;;1.35;1.20;;;8.70;99.90;;;;;;5149413;27;20023;-49
2023/12/07 01:57:57;;;;;;;2.05;1.48;;;8.60;99.90;;;;;;5149320;27;20173;-51
2023/12/07 02:00:23;;;;;;;3.30;1.50;;;8.60;99.90;;;;;;5149336;27;20060;-51
2023/12/07 02:02:48;;;;;;;3.42;1.48;;;8.70;99.90;;;;;;5148129;27;20023;-50
2023/12/07 02:05:14;;;;;;;2.15;1.23;;;8.70;99.90;;;;;;5147987;27;20038;-49
2023/12/07 02:07:43;;;;;;;1.42;1.23;;;8.80;99.90;;;;;;5148725;27;20058;-51
2023/12/07 02:10:09;;;;;;;2.03;1.42;;;8.90;99.90;;;;;;5148605;27;20296;-50
2023/12/07 02:12:35;;;;;;;1.52;1.17;;;8.90;99.90;;;;;;5147963;27;20088;-49
2023/12/07 02:15:01;;;;;;;1.70;1.20;;;8.90;99.90;;;;;;5149012;27;20031;-50
2023/12/07 02:17:31;;;;;;;1.70;1.10;;;8.90;99.90;;;;;;5148961;27;20098;-50
2023/12/07 02:20:06;;;;;;;1.73;1.20;;;8.90;99.90;;;;;;5148920;27;20292;-51
2023/12/07 02:22:41;;;;;;;1.80;1.10;;;9.00;99.90;;;;;;5131640;27;20068;-48
2023/12/07 02:25:08;;;;;;;2.88;1.70;;;9.10;99.90;;;;;;5147855;27;20090;-50
2023/12/07 02:27:40;;;;;;;1.52;1.13;;;9.10;99.90;;;;;;5147647;27;20045;-51
2023/12/07 02:30:10;;;;;;;2.03;0.90;;;9.00;99.90;;;;;;5148932;27;20019;-49
2023/12/07 02:32:37;;;;;;;1.63;1.10;;;9.10;99.90;;;;;;5148730;27;20042;-51
2023/12/07 02:35:03;;;;;;;2.28;1.17;;;9.20;99.90;;;;;;5148485;27;20030;-48
2023/12/07 02:37:30;;;;;;;1.55;0.95;;;9.20;99.90;;;;;;5148313;27;20015;-49
2023/12/07 02:39:56;;;;;;;1.48;1.10;;;9.20;99.90;;;;;;5131093;27;20034;-50
2023/12/07 02:42:22;;;;;;;1.90;1.00;;;9.20;99.90;;;;;;5130330;27;20091;-48
2023/12/07 02:44:48;;;;;;;2.00;1.10;;;9.20;99.90;;;;;;5147399;27;20090;-48
2023/12/07 02:47:14;;;;;;;1.33;1.08;;;9.20;99.90;;;;;;5147482;27;20125;-47
2023/12/07 02:49:40;;;;;;;1.42;1.02;;;9.10;99.90;;;;;;5130072;27;20219;-48
2023/12/07 02:52:05;;;;;;;1.38;1.10;;;9.00;99.90;;;;;;5147472;27;20022;-51
2023/12/07 02:54:31;;;;;;;1.83;1.00;;;9.10;99.90;;;;;;5148796;27;20042;-50
2023/12/07 02:56:57;;;;;;;1.83;1.00;;;9.10;99.90;;;;;;5148148;27;20027;-51
2023/12/07 02:59:22;;;;;;;1.02;0.85;;;9.10;99.90;;;;;;5147332;27;20030;-51
2023/12/07 03:01:48;;;;;;;1.55;1.10;;;9.00;99.90;;;;;;5148083;27;20094;-50
2023/12/07 03:04:14;;;;;;;1.48;0.90;;;8.90;99.90;;;;;;5147160;27;20100;-51
2023/12/07 03:06:39;;;;;;;1.92;1.20;;;9.00;99.90;;;;;;5147739;27;20027;-51
2023/12/07 03:09:05;;;;;;;1.33;0.85;;;9.00;99.90;;;;;;5148099;27;20042;-50
2023/12/07 03:11:30;;;;;;;1.38;1.05;;;8.90;99.90;;;;;;5148416;27;20034;-51
2023/12/07 03:13:56;;;;;;;1.00;0.90;;;8.90;99.90;;;;;;5146808;27;20035;-47
2023/12/07 03:16:22;;;;;;;1.52;1.05;;;8.90;99.90;;;;;;5147889;27;20047;-47
2023/12/07 03:18:48;;;;;;;1.52;1.00;;;8.90;99.90;;;;;;5146804;27;20106;-51
2023/12/07 03:21:14;;;;;;;1.17;1.08;;;8.90;99.90;;;;;;5147004;27;20177;-50
2023/12/07 03:23:40;;;;;;;1.17;1.00;;;8.90;99.90;;;;;;5147579;27;20088;-50
2023/12/07 03:26:05;;;;;;;1.92;1.02;;;8.90;99.90;;;;;;5147850;27;20037;-51
2023/12/07 03:28:31;;;;;;;2.20;1.10;;;8.90;99.90;;;;;;5146257;27;20054;-50
2023/12/07 03:30:57;;;;;;;1.70;0.82;;;8.90;99.90;;;;;;5147513;27;20153;-51
2023/12/07 03:33:22;;;;;;;0.75;0.75;;;9.00;99.90;;;;;;5147446;27;20280;-51
2023/12/07 03:35:49;;;;;;;0.70;0.68;;;8.90;99.90;;;;;;5146566;27;20102;-54
2023/12/07 03:38:14;;;;;;;1.58;0.80;;;9.00;99.90;;;;;;5147541;27;20019;-51
2023/12/07 03:40:40;;;;;;;1.08;0.80;;;9.00;99.90;;;;;;5147000;27;20034;-51
2023/12/07 03:43:06;;;;;;;1.70;0.85;;;9.10;99.90;;;;;;5146271;27;20035;-47
2023/12/07 03:45:31;;;;;;;1.88;0.93;;;9.10;99.90;;;;;;5146975;27;20026;-47
2023/12/07 03:47:57;;;;;;;1.10;1.00;;;9.10;99.90;;;;;;5146293;27;20188;-49
2023/12/07 03:50:23;;;;;;;1.00;0.90;;;9.10;99.90;;;;;;5147196;27;20274;-49
2023/12/07 03:52:48;;;;;;;1.10;1.00;;;9.20;99.90;;;;;;5147156;27;20035;-48
2023/12/07 03:55:14;;;;;;;1.38;1.00;;;9.20;99.90;;;;;;5146405;27;20086;-51
2023/12/07 03:57:40;;;;;;;0.70;0.70;;;9.20;99.90;;;;;;5146234;27;20088;-53
2023/12/07 04:00:10;;;;;;;1.00;0.77;;;9.20;99.90;;;;;;5146650;27;20034;-47
2023/12/07 04:02:36;;;;;;;0.80;0.80;;;9.30;99.90;;;;;;5147095;27;20027;-48
2023/12/07 04:05:02;;;;;;;0.93;0.70;;;9.30;99.90;;;;;;5146959;27;20042;-50
2023/12/07 04:07:30;;;;;;;1.38;0.90;;;9.40;99.90;;;;;;5146623;27;20190;-50
2023/12/07 04:09:57;;;;;;;0.80;0.80;;;9.30;99.90;;;;;;5146968;27;20033;-51
2023/12/07 04:12:23;;;;;;;1.17;0.90;;;9.30;99.90;;;;;;5146860;27;20087;-49
2023/12/07 04:14:50;;;;;;;0.80;0.80;;;9.20;99.90;;;;;;5146615;27;20257;-49
2023/12/07 04:17:15;;;;;;;1.15;0.70;;;9.30;99.90;;;;;;5146571;27;20234;-49
2023/12/07 04:19:41;;;;;;;2.67;1.00;;;9.30;99.90;;;;;;5146751;27;20046;-46
2023/12/07 04:22:06;;;;;;;0.75;0.75;;;9.30;99.90;;;;;;5146913;28;20030;-46
2023/12/07 04:24:32;;;;;;;0.75;0.75;;;9.30;99.90;;;;;;5146905;28;20027;-46
2023/12/07 04:26:58;;;;;;;1.30;1.20;;;9.30;99.90;;;;;;5146950;28;20039;-47
2023/12/07 04:29:23;;;;;;;0.80;0.80;;;9.40;99.90;;;;;;5147011;28;20034;-47
2023/12/07 04:31:49;;;;;;;0.68;0.68;;;9.40;99.90;;;;;;5147416;27;20227;-46
2023/12/07 04:34:15;;;;;;;0.80;0.80;;;9.50;99.90;;;;;;5150528;27;20035;-46
2023/12/07 04:36:40;;;;;;;1.27;0.90;;;9.50;99.90;;;;;;5149650;27;20027;-46
2023/12/07 04:39:08;;;;;;;0.70;0.70;;;9.50;99.90;;;;;;5150605;27;20023;-46
2023/12/07 04:41:33;;;;;;;0.65;0.65;;;9.60;99.90;;;;;;5149797;27;20231;-45
2023/12/07 04:43:59;;;;;;;0.73;0.73;;;9.60;99.90;;;;;;5150796;27;20053;-46
2023/12/07 04:46:25;;;;;;;0.98;0.88;;;9.50;99.90;;;;;;5150802;27;20019;-46
2023/12/07 04:48:51;;;;;;;0.65;0.65;;;9.60;99.90;;;;;;5150597;27;20035;-46
2023/12/07 04:51:16;;;;;;;1.40;0.88;;;9.70;99.90;;;;;;5149469;27;20027;-46
2023/12/07 04:53:42;;;;;;;0.90;0.70;;;9.70;99.90;;;;;;5149391;27;20083;-46
2023/12/07 04:56:08;;;;;;;0.98;0.70;;;9.70;99.90;;;;;;5150594;27;20031;-48
2023/12/07 04:58:33;;;;;;;0.70;0.70;;;9.70;99.90;;;;;;5150537;27;20023;-46
2023/12/07 05:00:59;;;;;;;0.60;0.60;;;9.70;99.90;;;;;;5150581;27;20321;-46
2023/12/07 05:03:25;;;;;;;0.60;0.60;;;9.80;99.90;;;;;;5150672;27;20035;-47
2023/12/07 05:05:50;;;;;;;0.50;0.50;;;9.80;99.90;;;;;;5150320;27;20094;-49
2023/12/07 05:08:17;;;;;;;1.02;0.82;;;9.90;99.90;;;;;;5148966;27;20042;-48
2023/12/07 05:10:43;;;;;;;1.35;0.73;;;9.90;99.90;;;;;;5150196;27;20031;-49
2023/12/07 05:13:09;;;;;;;0.70;0.70;;;9.90;99.90;;;;;;5149914;27;20082;-46
2023/12/07 05:15:35;;;;;;;0.75;0.60;;;9.90;99.90;;;;;;5150063;27;20291;-46
2023/12/07 05:18:00;;;;;;;0.70;0.70;;;9.90;99.90;;;;;;5150189;27;20035;-48
2023/12/07 05:20:28;;;;;;;1.95;0.80;;;9.90;99.90;;;;;;5149870;27;20191;-49
2023/12/07 05:22:53;;;;;;;0.50;0.50;;;10.00;99.90;;;;;;5150199;27;20058;-49
2023/12/07 05:25:19;;;;;;;0.68;0.60;;;9.90;99.90;;;;;;5149009;27;20039;-48
2023/12/07 05:27:45;;;;;;;0.60;0.60;;;10.00;99.90;;;;;;5149929;27;20281;-48
2023/12/07 05:30:11;;;;;;;1.10;0.73;;;9.90;99.90;;;;;;5149979;27;20352;-51
2023/12/07 05:32:37;;;;;;;0.75;0.65;;;9.90;99.90;;;;;;5149741;27;20037;-51
2023/12/07 05:35:03;;;;;;;0.60;0.60;;;9.90;99.90;;;;;;5149675;27;20023;-52
2023/12/07 05:37:29;;;;;;;0.60;0.60;;;9.90;99.90;;;;;;5149479;27;20037;-52
2023/12/07 05:39:54;;;;;;;0.70;0.70;;;9.90;99.90;;;;;;5148651;27;20312;-51
2023/12/07 05:42:20;;;;;;;0.60;0.60;;;9.90;99.90;;;;;;5149637;27;20079;-51
2023/12/07 05:44:46;;;;;;;1.05;0.57;;;9.80;99.90;;;;;;5148574;27;20023;-51
2023/12/07 05:47:12;;;;;;;0.60;0.60;;;9.80;99.90;;;;;;5148391;27;20031;-52
2023/12/07 05:49:37;;;;;;;0.63;0.60;;;9.90;99.90;;;;;;5149442;27;20226;-51
2023/12/07 05:52:03;;;;;;;0.60;0.60;;;9.80;99.90;;;;;;5149462;27;20050;-52
2023/12/07 05:54:29;;;;;;;0.77;0.77;;;9.90;99.90;;;;;;5148191;27;20042;-52
2023/12/07 05:56:54;;;;;;;0.50;0.50;;;9.90;99.90;;;;;;5148187;27;20181;-52
2023/12/07 05:59:20;;;;;;;0.50;0.50;;;9.80;99.90;;;;;;5148255;27;20023;-51
2023/12/07 06:01:46;;;;;;;0.70;0.70;;;9.80;99.90;;;;;;5148182;27;20023;-51
2023/12/07 06:04:12;;;;;;;1.10;0.68;;;9.80;99.90;;;;;;5149430;27;20022;-51
2023/12/07 06:06:38;;;;;;;0.50;0.50;;;9.80;99.90;;;;;;5148583;27;20086;-51
2023/12/07 06:09:07;;;;;;;0.60;0.60;;;9.80;99.90;;;;;;5149092;27;20234;-50
2023/12/07 06:11:34;;;;;;;0.60;0.60;;;9.80;99.90;;;;;;5149064;27;20023;-51
2023/12/07 06:14:00;;;;;;;0.60;0.60;;;9.80;99.90;;;;;;5149059;27;20015;-51
2023/12/07 06:16:26;;;;;;;0.60;0.60;;;9.80;99.90;;;;;;5149073;27;20090;-50
2023/12/07 06:18:52;;;;;;;0.60;0.60;;;9.80;99.90;;;;;;5148932;27;20128;-51
2023/12/07 06:21:17;;;;;;;0.68;0.60;;;9.80;99.90;;;;;;5148730;27;20050;-51
2023/12/07 06:23:46;;;;;;;0.55;0.55;;;9.80;99.90;;;;;;5148564;27;20119;-48
2023/12/07 06:26:11;;;;;;;0.60;0.60;;;9.80;99.90;;;;;;5148917;27;20023;-50
2023/12/07 06:28:37;;;;;;;0.60;0.60;;;9.80;99.90;;;;;;5148851;27;20329;-48
2023/12/07 06:31:09;;;;;;;0.70;0.70;;;9.80;99.90;;;;;;5148748;27;20293;-48
2023/12/07 06:33:35;;;;;;;3.30;0.65;;;9.80;99.90;;;;;;5148711;27;20041;-48
2023/12/07 06:36:03;;;;;;;0.77;0.60;;;9.80;99.90;;;;;;5147608;27;20023;-48
2023/12/07 06:38:28;;;;;;;0.63;0.63;;;9.80;99.90;;;;;;5148615;27;20070;-49
2023/12/07 06:40:54;;;;;;;0.60;0.60;;;9.80;99.90;;;;;;5148459;27;20020;-49
2023/12/07 06:43:20;;;;;;;0.85;0.70;;;9.80;99.90;;;;;;5148589;27;20034;-50
2023/12/07 06:45:45;;;;;;;0.85;0.70;;;9.80;99.90;;;;;;5147518;27;20038;-51
2023/12/07 06:48:11;;;;;;;0.50;0.50;;;9.80;99.90;;;;;;5147545;27;20166;-49
2023/12/07 06:50:37;;;;;;;0.70;0.70;;;9.80;99.90;;;;;;5148340;27;20099;-49
2023/12/07 06:53:03;;;;;;;0.60;0.60;;;9.80;99.90;;;;;;5147412;27;20045;-50
2023/12/07 06:55:28;;;;;;;0.60;0.60;;;9.80;99.90;;;;;;5146783;27;20038;-50
2023/12/07 06:57:54;;;;;;;0.60;0.60;;;9.80;99.90;;;;;;5148260;27;20043;-51
2023/12/07 07:00:20;;;;;;;0.70;0.70;;;9.80;99.90;;;;;;5147130;27;20181;-50
2023/12/07 07:02:45;;;;;;;0.50;0.50;;;9.70;99.90;;;;;;5148007;27;20019;-50
2023/12/07 07:05:11;;;;;;;0.52;0.52;;;9.70;99.90;;;;;;5147296;27;20031;-50
2023/12/07 07:07:38;;;;;;;0.60;0.60;;;9.80;99.90;;;;;;5147512;27;20055;-50
2023/12/07 07:10:04;;;;;;;3.40;0.80;;;9.90;99.90;;;;;;5147857;27;20027;-50
2023/12/07 07:12:29;;;;;;;0.60;0.60;;;9.90;99.90;;;;;;5147808;27;20360;-49
2023/12/07 07:14:55;;;;;;;1.20;0.70;;;9.90;99.90;;;;;;5147752;27;20050;-48
2023/12/07 07:17:21;;;;;;;1.27;0.80;;;9.90;99.90;;;;;;5147706;27;20211;-47
2023/12/07 07:19:46;;;;;;;0.75;0.70;;;9.90;99.90;;;;;;5146811;27;20021;-48
2023/12/07 07:22:12;;;;;;;1.20;0.68;;;9.90;99.90;;;;;;5147903;27;20207;-47
2023/12/07 07:24:38;;;;;;;1.83;0.80;;;9.90;99.90;;;;;;5147656;27;20027;-48
2023/12/07 07:27:04;;;;;;;0.60;0.60;;;9.90;99.90;;;;;;5146470;27;20023;-48
2023/12/07 07:29:32;;;;;;;0.50;0.50;;;10.00;99.90;;;;;;5147452;27;20035;-48
2023/12/07 07:31:57;;;;;;;1.77;0.80;;;10.00;99.90;;;;;;5147443;27;20086;-48
2023/12/07 07:34:24;;;;;;;2.08;0.70;;;10.00;99.90;;;;;;5147399;27;20044;-48
2023/12/07 07:36:50;;;;;;;0.88;0.70;;;10.00;99.90;;;;;;5147111;27;20112;-51
2023/12/07 07:39:16;;;;;;;1.80;0.88;;;10.10;99.90;;;;;;5147202;27;20019;-51
2023/12/07 07:41:41;;;;;;;0.60;0.60;;;10.10;99.90;;;;;;5147081;27;20191;-50
2023/12/07 07:44:07;;;;;;;1.60;0.70;;;10.20;99.90;;;;;;5146153;27;20039;-51
2023/12/07 07:46:33;;;;;;;0.77;0.70;;;10.20;99.90;;;;;;5146772;27;20075;-51
2023/12/07 07:48:58;;;;;;;0.98;0.80;;;10.20;99.90;;;;;;5147308;27;20027;-51
2023/12/07 07:51:24;;;;;;;0.90;0.90;;;10.30;99.90;;;;;;5146807;27;20062;-50
2023/12/07 07:53:50;;;;;;;0.60;0.60;;;10.20;99.90;;;;;;5147011;27;20086;-51
2023/12/07 07:56:15;;;;;;;0.70;0.70;;;10.20;99.90;;;;;;5146993;27;20019;-50
2023/12/07 07:58:41;;;;;;;1.58;0.90;;;10.20;99.90;;;;;;5146617;27;20038;-51
2023/12/07 08:01:07;;;;;;;1.95;0.80;;;10.20;99.90;;;;;;5146826;27;20031;-48
2023/12/07 08:03:32;;;;;;;0.63;0.63;;;10.20;99.90;;;;;;5146803;27;20095;-50
2023/12/07 08:05:58;;;;;;;0.60;0.60;;;10.20;99.90;;;;;;5146636;27;20035;-51
2023/12/07 08:08:26;;;;;;;1.45;0.98;;;10.20;99.90;;;;;;5145922;27;20321;-51
2023/12/07 08:10:51;;;;;;;0.93;0.70;;;10.30;99.90;;;;;;5146700;27;20034;-51
2023/12/07 08:13:17;;;;;;;0.70;0.70;;;10.30;99.90;;;;;;5146941;27;20031;-47
2023/12/07 08:15:43;;;;;;;0.60;0.60;;;10.30;99.90;;;;;;5145591;27;20038;-48
2023/12/07 08:18:08;;;;;;;0.70;0.70;;;10.40;99.90;;;;;;5146166;27;20188;-47
2023/12/07 08:20:34;;;;;;;1.27;0.70;;;10.40;99.90;;;;;;5146698;28;20197;-47
2023/12/07 08:23:00;;;;;;;1.20;0.70;;;10.40;99.90;;;;;;5145458;28;20023;-47
2023/12/07 08:25:26;;;;;;;1.00;0.60;;;10.40;99.90;;;;;;5145393;28;20052;-50
2023/12/07 08:27:51;;;;;;;0.63;0.52;;;10.40;99.90;;;;;;5146502;28;20331;-52
2023/12/07 08:30:18;;;;;;;1.55;0.80;;;10.40;99.90;;;;;;5145229;28;20034;-49
2023/12/07 08:32:44;;;;;;;0.85;0.80;;;10.40;99.90;;;;;;5146453;28;20023;-50
2023/12/07 08:35:09;;;;;;;1.40;0.90;;;10.40;99.90;;;;;;5145503;28;20103;-51
2023/12/07 08:37:37;;;;;;;2.55;0.88;;;10.40;99.90;;;;;;5145422;28;20023;-50
2023/12/07 08:40:03;;;;;;;0.60;0.60;;;10.40;99.90;;;;;;5146383;28;20035;-50
2023/12/07 08:42:31;;;;;;;1.17;0.60;;;10.40;99.90;;;;;;5146346;27;20246;-54
2023/12/07 08:44:57;;;;;;;1.98;0.80;;;10.50;99.90;;;;;;5145936;28;20122;-50
2023/12/07 08:47:22;;;;;;;0.70;0.70;;;10.50;99.90;;;;;;5146023;28;20027;-50
2023/12/07 08:49:48;;;;;;;1.55;0.82;;;10.50;99.90;;;;;;5146340;28;20026;-48
2023/12/07 08:52:14;;;;;;;0.60;0.60;;;10.50;99.90;;;;;;5146016;28;20222;-48
2023/12/07 08:54:39;;;;;;;1.08;0.80;;;10.60;99.90;;;;;;5145791;28;20020;-48
2023/12/07 08:57:05;;;;;;;2.00;0.70;;;10.60;99.90;;;;;;5146096;28;20027;-50
2023/12/07 08:59:31;;;;;;;0.63;0.63;;;10.60;99.90;;;;;;5146256;28;20072;-51
2023/12/07 09:01:56;;;;;;;0.57;0.57;;;10.70;99.90;;;;;;5145865;28;20082;-50
2023/12/07 09:04:22;;;;;;;1.15;0.70;;;10.70;99.90;;;;;;5146223;28;20037;-50
2023/12/07 09:06:48;;;;;;;0.60;0.60;;;10.70;99.90;;;;;;5145663;28;20273;-49
2023/12/07 09:09:13;;;;;;;1.23;0.70;;;10.70;99.90;;;;;;5145980;28;20047;-50
2023/12/07 09:11:39;;;;;;;1.70;0.70;;;10.80;99.90;;;;;;5145978;28;20090;-49
2023/12/07 09:14:05;;;;;;;0.50;0.50;;;10.90;99.90;;;;;;5146064;28;20027;-51
2023/12/07 09:16:30;;;;;;;1.33;0.80;;;10.90;99.90;;;;;;5144967;28;20181;-50
2023/12/07 09:18:56;;;;;;;0.63;0.63;;;10.90;99.90;;;;;;5146847;27;20169;-48
2023/12/07 09:21:22;;;;;;;1.27;0.75;;;10.90;99.90;;;;;;5149669;27;20069;-51
2023/12/07 09:23:47;;;;;;;0.70;0.70;;;10.90;99.90;;;;;;5149889;27;20027;-51
2023/12/07 09:26:13;;;;;;;0.60;0.60;;;10.90;99.90;;;;;;5149801;27;20038;-51
2023/12/07 09:28:39;;;;;;;0.70;0.60;;;10.90;99.90;;;;;;5149770;27;20030;-51
2023/12/07 09:31:06;;;;;;;0.70;0.55;;;10.90;99.90;;;;;;5149604;27;20030;-51
2023/12/07 09:33:31;;;;;;;1.13;1.02;;;10.90;99.90;;;;;;5149158;27;20091;-51
2023/12/07 09:35:57;;;;;;;0.63;0.60;;;10.90;99.90;;;;;;5149608;27;20035;-51
2023/12/07 09:38:23;;;;;;;0.60;0.60;;;10.80;99.90;;;;;;5148438;27;20054;-51
2023/12/07 09:40:52;;;;;;;0.50;0.50;;;10.80;99.90;;;;;;5149447;27;20045;-48
2023/12/07 09:43:18;;;;;;;0.70;0.70;;;10.80;99.90;;;;;;5148242;27;20215;-50
2023/12/07 09:45:44;;;;;;;0.60;0.60;;;10.90;99.90;;;;;;5149359;27;20042;-50
2023/12/07 09:48:10;;;;;;;0.85;0.60;;;10.90;99.90;;;;;;5149304;27;20027;-48
2023/12/07 09:50:37;;;;;;;0.70;0.60;;;11.00;99.90;;;;;;5148246;27;20337;-49
2023/12/07 09:53:02;;;;;;;0.50;0.50;;;11.10;99.90;;;;;;5113971;27;20038;-49
2023/12/07 09:55:28;;;;;;;0.73;0.60;;;11.10;99.90;;;;;;5149037;27;20032;-52
2023/12/07 09:57:56;;;;;;;0.50;0.50;;;11.10;99.90;;;;;;5149133;27;20042;-51
2023/12/07 10:00:22;;;;;;;1.88;0.70;;;11.10;99.90;;;;;;5130926;27;20038;-52
2023/12/07 10:02:48;;;;;;;0.50;0.50;;;11.20;99.90;;;;;;5148347;27;20031;-50
2023/12/07 10:05:16;;;;;;;0.70;0.70;;;11.20;99.90;;;;;;5148987;27;20090;-49
2023/12/07 10:07:47;;;;;;;0.50;0.50;;;11.20;99.90;;;;;;5148413;27;20039;-50
2023/12/07 10:10:15;;;;;;;1.52;0.70;;;11.20;99.90;;;;;;5148180;27;20029;-50
2023/12/07 10:12:46;;;;;;;0.50;0.50;;;11.30;99.90;;;;;;5148352;27;20039;-50
2023/12/07 10:15:13;;;;;;;0.60;0.60;;;11.20;99.90;;;;;;5147535;27;20023;-50
2023/12/07 10:17:58;;;;;;;1.10;0.60;;;11.20;99.90;;;;;;5148384;27;20031;-50
2023/12/07 10:20:25;;;;;;;1.25;0.70;;;11.20;99.90;;;;;;5147240;27;20023;-52
2023/12/07 10:23:02;;;;;;;0.77;0.68;;;11.20;99.90;;;;;;5148349;27;20023;-52
2023/12/07 10:25:29;;;;;;;0.75;0.70;;;11.30;99.90;;;;;;5148415;27;20054;-52
2023/12/07 10:27:55;;;;;;;0.68;0.60;;;11.30;99.90;;;;;;5147351;27;20098;-51
2023/12/07 10:30:24;;;;;;;0.82;0.70;;;11.30;99.90;;;;;;5146590;27;20023;-51
2023/12/07 10:32:50;;;;;;;0.60;0.60;;;11.30;99.90;;;;;;5114290;27;20035;-52
2023/12/07 10:35:16;;;;;;;1.33;0.82;;;11.40;99.90;;;;;;5147102;27;20046;-52
2023/12/07 10:37:42;;;;;;;1.13;0.70;;;11.50;99.90;;;;;;5147126;27;20042;-52
2023/12/07 10:40:08;;;;;;;0.60;0.60;;;11.60;99.90;;;;;;5147670;27;20031;-51
2023/12/07 10:42:36;;;;;;;0.60;0.60;;;11.50;99.90;;;;;;5147956;27;20034;-50
2023/12/07 10:45:04;;;;;;;0.50;0.50;;;11.60;99.90;;;;;;5147988;27;20023;-51
2023/12/07 10:47:30;;;;;;;0.60;0.60;;;11.70;99.90;;;;;;5147561;27;20041;-52
2023/12/07 10:49:58;;;;;;;0.60;0.60;;;11.70;99.90;;;;;;5148026;27;20056;-51
2023/12/07 10:52:24;;;;;;;0.60;0.60;;;11.60;99.90;;;;;;5146559;27;20023;-50
2023/12/07 10:54:59;;;;;;;0.60;0.60;;;11.70;99.90;;;;;;5146922;27;20031;-51
2023/12/07 10:57:24;;;;;;;0.85;0.50;;;11.60;99.90;;;;;;5129421;27;20034;-51
2023/12/07 10:59:50;;;;;;;0.60;0.60;;;11.60;99.90;;;;;;5146757;27;20023;-49
2023/12/07 11:02:16;;;;;;;0.50;0.50;;;11.70;99.90;;;;;;5147778;27;20072;-49
2023/12/07 11:04:41;;;;;;;0.50;0.50;;;11.70;99.90;;;;;;5146394;27;20034;-49
2023/12/07 11:07:09;;;;;;;0.50;0.50;;;11.70;99.90;;;;;;5147354;27;20058;-48
2023/12/07 11:09:36;;;;;;;0.60;0.60;;;11.70;99.90;;;;;;5129719;27;20031;-50
2023/12/07 11:12:10;;;;;;;0.90;0.57;;;11.60;99.90;;;;;;5146541;27;20030;-48
2023/12/07 11:14:36;;;;;;;0.57;0.57;;;11.70;99.90;;;;;;5146606;27;20060;-48
2023/12/07 11:17:02;;;;;;;0.50;0.50;;;11.70;99.90;;;;;;5129535;27;20023;-48
2023/12/07 11:19:39;;;;;;;1.85;1.30;;;11.70;99.90;;;;;;5129386;27;20131;-48
2023/12/07 11:22:09;;;;;;;9.55;5.00;;;11.70;99.90;;;;;;5147381;27;20098;-48
2023/12/07 11:24:36;;;;;;;1.30;0.73;;;11.70;99.90;;;;;;5146448;27;20087;-48
2023/12/07 11:27:01;;;;;;;0.82;0.70;;;11.70;99.90;;;;;;5147038;27;20034;-49
2023/12/07 11:29:31;;;;;;;0.70;0.70;;;11.70;99.90;;;;;;5146138;27;20019;-48
2023/12/07 11:32:00;;;;;;;0.90;0.70;;;11.70;99.90;;;;;;5147131;27;20226;-49
2023/12/07 11:34:38;;;;;;;0.90;0.55;;;11.70;99.90;;;;;;5147319;27;20065;-48
2023/12/07 11:37:04;;;;;;;0.60;0.60;;;11.70;99.90;;;;;;5146426;27;20034;-48
2023/12/07 11:39:34;;;;;;;0.57;0.55;;;11.70;99.90;;;;;;5145750;27;20162;-48
2023/12/07 11:42:08;;;;;;;;;;;11.60;99.90;;;;;;5145641;27;20019;-48
2023/12/07 11:44:34;;;;;;;0.60;0.60;;;11.60;99.90;;;;;;5147029;27;19960;-50
2023/12/07 11:47:01;;;;;;;2.70;2.08;;;11.60;99.90;;;;;;5147209;27;20061;-48
2023/12/07 11:49:26;;;;;;;0.60;0.60;;;11.60;99.90;;;;;;5146855;27;20035;-52
2023/12/07 11:51:52;;;;;;;2.50;1.73;;;11.70;99.90;;;;;;5145955;27;20136;-48
2023/12/07 11:54:18;;;;;;;0.85;0.70;;;11.80;99.90;;;;;;5146822;27;20092;-49
2023/12/07 11:56:43;;;;;;;0.80;0.80;;;11.80;99.90;;;;;;5146396;27;20189;-48
2023/12/07 11:59:09;;;;;;;0.70;0.70;;;11.70;99.90;;;;;;5146399;27;20037;-48
2023/12/07 12:01:35;;;;;;;1.77;1.20;;;11.70;99.90;;;;;;5146519;27;20181;-50
2023/12/07 12:04:01;;;;;;;3.35;2.10;;;11.70;99.90;;;;;;5145646;27;20031;-48
2023/12/07 12:06:27;;;;;;;2.42;1.70;;;11.60;99.90;;;;;;5146559;27;20035;-48
2023/12/07 12:08:53;;;;;;;0.80;0.80;;;11.60;99.90;;;;;;5146624;27;20043;-48
2023/12/07 12:11:18;;;;;;;1.52;1.02;;;11.50;99.90;;;;;;5146618;27;20023;-49
2023/12/07 12:13:45;;;;;;;1.05;0.93;;;11.50;99.90;;;;;;5145488;27;20197;-48
2023/12/07 12:16:11;;;;;;;1.38;0.70;;;11.50;99.90;;;;;;5145503;27;20308;-51
2023/12/07 12:18:37;;;;;;;0.60;0.60;;;11.50;99.90;;;;;;5146141;27;20080;-52
2023/12/07 12:21:03;;;;;;;0.75;0.75;;;11.50;99.90;;;;;;5128354;28;20038;-51
2023/12/07 12:23:29;;;;;;;0.63;0.60;;;11.50;99.90;;;;;;5146498;27;20153;-49
2023/12/07 12:25:54;;;;;;;0.70;0.70;;;11.30;99.90;;;;;;5146805;28;20039;-51
2023/12/07 12:28:22;;;;;;;0.50;0.50;;;11.00;99.90;;;;;;5111166;28;20062;-49
2023/12/07 12:30:48;;;;;;;1.40;0.80;;;10.90;99.90;;;;;;5145833;28;20083;-49
2023/12/07 12:33:14;;;;;;;0.60;0.60;;;10.90;99.90;;;;;;5146322;28;20035;-48
2023/12/07 12:35:40;;;;;;;0.60;0.60;;;10.90;99.90;;;;;;5146350;28;20090;-51
2023/12/07 12:38:10;;;;;;;0.63;0.60;;;10.90;99.90;;;;;;5128191;28;20019;-51
2023/12/07 12:40:36;;;;;;;1.27;0.77;;;10.90;99.90;;;;;;5146192;28;20027;-50
2023/12/07 12:43:02;;;;;;;0.50;0.50;;;10.90;99.90;;;;;;5146148;28;20046;-51
2023/12/07 12:45:27;;;;;;;0.70;0.70;;;10.90;99.90;;;;;;5145219;28;20023;-51
2023/12/07 12:47:54;;;;;;;0.65;0.63;;;10.90;99.90;;;;;;5146016;28;20027;-51